Decimomannu, Italia

05:34 AM CEST del 02 Luglio 2015 (GMT +0200)
Decimoputzu | | Change Station
CLOSE
Current Station
Stazione meteo personale
Location: Decimoputzu, SARDEGNA
Altitudine: 49 ft
Stazioni meteo nelle vicinanze
Avvisi attivi: Extreme high temperature

Alt. 49 ft 39.34 °N, 8.91 °E | Updated 4 seconds ago

Clear
Sereno
66.6 °F
Sembra 66.6 °F
N
1.2
Vento Variabile Vento da ONO
Gusts 1.2 mph

Oggi
Massima -- | Minima -- °F
--% Possibilità di precip.
Ieri
Massima -- | Minima -- °F
Precip. -- in
6:01 AM 8:54 PM
Luna piena, 100% visible
Pressione 30.12 in
Visibilità -9999.0 miglia
Nuvole
Punto di rugiada 61 °F
Umidità 83%
Piovosità 0.00 in
Spessore del manto nevoso Non disponibile.
Raggi UV Non disponibile.
Polline Non disponibile.
Qualità dell'aria Non disponibile.
Flu Activity Non disponibile.
METAR LIEE 020320Z 03003KT CAVOK 21/17 Q1020

More Conditions Fewer Conditions

Pressione 30.12 in
Visibilità -9999.0 miglia
Nuvole
Punto di rugiada 61 °F
Umidità 83%
Piovosità 0.00 in
Spessore del manto nevoso Non disponibile.
Raggi UV Non disponibile.
Polline Non disponibile.
Qualità dell'aria Non disponibile.
Flu Activity Non disponibile.
METAR LIEE 020320Z 03003KT CAVOK 21/17 Q1020

More Conditions Fewer Conditions

10-Day Weather Forecast

×

Almanac

Astronomia

Jul. 02, 2015 Alba Tramonto
Ora attuale
Crepuscolo civile
Crepuscolo nautico
Crepuscolo astronomico
Luna
Estensione della luce visibile
Lunghezza del giorno
Tomorrow will be .
, % of the Moon is Illuminated

Gli estremi di oggi

Massime Regione Minime Regione

Community

WunderPhotos

Upload Photos

1,834,390 foto caricate!

WunderBlogs® & News

Nearby

Qualità dell'aria

  Qualità dell'aria Indice AQ Inquinante
Not available.

Profondità neve

Stazione Profondità Altitudine

Attività sismica

Città  Distanza Mag. Data & Ora
Minimo Magnitudo Mostrato è 2.5.

Temperature delle acque costiere

Località Temperatura

Stations

Stazioni meteo nelle vicinanze

Ubicazione della stazione Temp. Raffreddamento del vento Punto di rugiada Umidità Vento Precip. Alt. Aggiornato Tipo